createdAt,value
2017-02-21T00:00:10.827Z,11.32
2017-02-21T00:01:11.199Z,11.29
2017-02-21T00:02:11.177Z,11.24
2017-02-21T00:03:11.165Z,11.21
2017-02-21T00:04:11.149Z,11.24
2017-02-21T00:05:11.150Z,11.24
2017-02-21T00:06:11.131Z,11.19
2017-02-21T00:07:11.140Z,11.17
2017-02-21T00:08:11.091Z,11.24
2017-02-21T00:09:11.092Z,11.16
2017-02-21T00:10:11.076Z,11.17
2017-02-21T00:11:10.646Z,11.17
2017-02-21T00:12:11.039Z,11.14
2017-02-21T00:13:11.014Z,11.13
2017-02-21T00:14:11.017Z,11.1
2017-02-21T00:15:10.988Z,11.16
2017-02-21T00:16:10.220Z,11.13
2017-02-21T00:17:10.972Z,11.14
2017-02-21T00:18:10.543Z,11.1
2017-02-21T00:19:10.534Z,11.14
2017-02-21T00:20:10.906Z,11.11
2017-02-21T00:21:10.906Z,11.13
2017-02-21T00:22:10.882Z,11.13
2017-02-21T00:23:10.873Z,11.2
2017-02-21T00:24:10.456Z,11.16
2017-02-21T00:25:10.848Z,11.2
2017-02-21T00:26:10.424Z,11.1
2017-02-21T00:27:10.411Z,11.13
2017-02-21T00:28:10.785Z,11.09
2017-02-21T00:29:10.776Z,11.17
2017-02-21T00:30:10.758Z,11.09
2017-02-21T00:31:10.349Z,11.1
2017-02-21T00:32:10.728Z,11.11
2017-02-21T00:33:10.712Z,11.1
2017-02-21T00:34:09.907Z,11.13
2017-02-21T00:35:10.693Z,11.17
2017-02-21T00:36:09.876Z,11.11
2017-02-21T00:37:10.888Z,11.11
2017-02-21T00:38:10.650Z,11.11
2017-02-21T00:39:10.628Z,11.14
2017-02-21T00:40:10.212Z,11.09
2017-02-21T00:41:10.601Z,11.13
2017-02-21T00:42:10.583Z,11.16
2017-02-21T00:43:10.170Z,11.14
2017-02-21T00:44:10.558Z,11.14
2017-02-21T00:45:10.138Z,11.11
2017-02-21T00:46:10.517Z,11.1
2017-02-21T00:47:10.116Z,11.06
2017-02-21T00:48:10.101Z,11.09
2017-02-21T00:49:10.474Z,11.07
2017-02-21T00:50:10.058Z,11.11
2017-02-21T00:51:10.446Z,11.03
2017-02-21T00:52:10.429Z,11.03
2017-02-21T00:53:10.031Z,11.01
2017-02-21T00:54:10.399Z,11.07
2017-02-21T00:55:09.984Z,11.07
2017-02-21T00:56:09.990Z,11.07
2017-02-21T00:57:09.961Z,11.01
2017-02-21T00:58:10.354Z,10.99
2017-02-21T00:59:09.920Z,11.06
2017-02-21T01:00:10.318Z,10.98
2017-02-21T01:01:10.292Z,11.01
2017-02-21T01:02:10.283Z,10.99
2017-02-21T01:03:10.262Z,11.03
2017-02-21T01:04:10.244Z,10.94
2017-02-21T01:05:09.842Z,10.94
2017-02-21T01:06:10.224Z,10.95
2017-02-21T01:07:10.243Z,10.94
2017-02-21T01:08:10.193Z,10.94
2017-02-21T01:09:09.778Z,10.99
2017-02-21T01:10:10.155Z,10.99
2017-02-21T01:11:10.146Z,10.91
2017-02-21T01:12:10.120Z,10.98
2017-02-21T01:13:10.116Z,10.95
2017-02-21T01:14:10.097Z,10.98
2017-02-21T01:15:10.079Z,10.94
2017-02-21T01:16:10.079Z,11.01
2017-02-21T01:17:09.653Z,10.95
2017-02-21T01:18:10.044Z,10.96
2017-02-21T01:19:10.021Z,10.88
2017-02-21T01:20:09.606Z,10.91
2017-02-21T01:21:09.989Z,10.86
2017-02-21T01:22:09.575Z,10.84
2017-02-21T01:23:09.962Z,10.96
2017-02-21T01:24:09.947Z,10.92
2017-02-21T01:25:09.924Z,10.92
2017-02-21T01:26:09.918Z,10.92
2017-02-21T01:27:09.906Z,10.88
2017-02-21T01:28:09.486Z,10.88
2017-02-21T01:29:09.942Z,10.94
2017-02-21T01:30:09.856Z,10.78
2017-02-21T01:31:09.832Z,10.89
2017-02-21T01:32:09.828Z,10.83
2017-02-21T01:33:09.813Z,10.88
2017-02-21T01:34:09.800Z,10.78
2017-02-21T01:35:09.766Z,10.83
2017-02-21T01:36:09.767Z,10.8
2017-02-21T01:37:09.748Z,10.78
2017-02-21T01:38:09.727Z,10.83
2017-02-21T01:39:09.719Z,10.77
2017-02-21T01:40:09.704Z,10.77
2017-02-21T01:41:09.694Z,10.81
2017-02-21T01:42:09.684Z,10.74
2017-02-21T01:43:09.656Z,10.84
2017-02-21T01:44:09.640Z,10.8
2017-02-21T01:45:09.624Z,10.71
2017-02-21T01:46:09.620Z,10.78
2017-02-21T01:47:09.610Z,10.71
2017-02-21T01:48:09.579Z,10.68
2017-02-21T01:49:09.572Z,10.7
2017-02-21T01:50:09.556Z,10.81
2017-02-21T01:51:09.544Z,10.78
2017-02-21T01:52:09.532Z,10.81
2017-02-21T01:53:09.504Z,10.76
2017-02-21T01:54:09.106Z,10.71
2017-02-21T01:55:09.492Z,10.78
2017-02-21T01:56:09.467Z,10.74
2017-02-21T01:57:09.446Z,10.66
2017-02-21T01:58:09.429Z,10.74
2017-02-21T01:59:09.423Z,10.7
2017-02-21T02:00:09.396Z,10.63
2017-02-21T02:01:09.382Z,10.7
2017-02-21T02:02:09.367Z,10.77
2017-02-21T02:03:09.363Z,10.73
2017-02-21T02:04:09.334Z,10.68
2017-02-21T02:05:09.344Z,10.76
2017-02-21T02:06:09.306Z,10.74
2017-02-21T02:07:09.288Z,10.7
2017-02-21T02:08:09.284Z,10.63
2017-02-21T02:09:09.267Z,10.62
2017-02-21T02:10:09.252Z,10.59
2017-02-21T02:11:09.233Z,10.53
2017-02-21T02:12:09.259Z,10.56
2017-02-21T02:13:08.863Z,10.53
2017-02-21T02:14:09.182Z,10.53
2017-02-21T02:15:09.167Z,10.47
2017-02-21T02:16:09.167Z,10.53
2017-02-21T02:17:09.153Z,10.51
2017-02-21T02:18:09.125Z,10.47
2017-02-21T02:19:09.131Z,10.53
2017-02-21T02:20:08.704Z,10.46
2017-02-21T02:21:09.094Z,10.36
2017-02-21T02:22:08.668Z,10.4
2017-02-21T02:23:09.055Z,10.39
2017-02-21T02:24:09.050Z,10.42
2017-02-21T02:25:08.614Z,10.44
2017-02-21T02:26:09.005Z,10.4
2017-02-21T02:27:08.596Z,10.42
2017-02-21T02:28:08.966Z,10.39
2017-02-21T02:29:08.971Z,10.37
2017-02-21T02:30:08.557Z,10.44
2017-02-21T02:31:08.939Z,10.4
2017-02-21T02:32:08.906Z,10.34
2017-02-21T02:33:08.895Z,10.39
2017-02-21T02:34:08.873Z,10.4
2017-02-21T02:35:08.871Z,10.39
2017-02-21T02:36:08.843Z,10.46
2017-02-21T02:37:09.036Z,10.4
2017-02-21T02:38:08.841Z,10.42
2017-02-21T02:39:08.407Z,10.37
2017-02-21T02:40:08.809Z,10.36
2017-02-21T02:41:08.767Z,10.4
2017-02-21T02:42:08.750Z,10.36
2017-02-21T02:43:08.741Z,10.37
2017-02-21T02:44:08.730Z,10.33
2017-02-21T02:45:08.332Z,10.44
2017-02-21T02:46:08.693Z,10.3
2017-02-21T02:47:08.689Z,10.33
2017-02-21T02:48:08.666Z,10.36
2017-02-21T02:49:08.659Z,10.24
2017-02-21T02:50:08.649Z,10.33
2017-02-21T02:51:08.618Z,10.34
2017-02-21T02:52:08.606Z,10.32
2017-02-21T02:53:08.586Z,10.34
2017-02-21T02:54:08.185Z,10.3
2017-02-21T02:55:08.161Z,10.25
2017-02-21T02:56:08.551Z,10.33
2017-02-21T02:57:08.135Z,10.26
2017-02-21T02:58:08.525Z,10.19
2017-02-21T02:59:08.495Z,10.22
2017-02-21T03:00:08.092Z,10.17
2017-02-21T03:01:08.463Z,10.15
2017-02-21T03:02:08.059Z,10.19
2017-02-21T03:03:08.044Z,10.24
2017-02-21T03:04:08.420Z,10.25
2017-02-21T03:05:07.999Z,10.21
2017-02-21T03:06:08.384Z,10.19
2017-02-21T03:07:07.992Z,10.1
2017-02-21T03:08:08.357Z,10.15
2017-02-21T03:09:07.945Z,10.1
2017-02-21T03:10:07.926Z,10.07
2017-02-21T03:11:08.314Z,9.99
2017-02-21T03:12:07.924Z,10.04
2017-02-21T03:13:08.279Z,10.07
2017-02-21T03:14:07.873Z,10.01
2017-02-21T03:15:07.845Z,10.03
2017-02-21T03:16:08.232Z,10.04
2017-02-21T03:17:07.820Z,10.04
2017-02-21T03:18:08.194Z,10
2017-02-21T03:19:08.221Z,10.01
2017-02-21T03:20:07.771Z,9.96
2017-02-21T03:21:08.157Z,9.97
2017-02-21T03:22:08.154Z,9.88
2017-02-21T03:23:08.138Z,10.06
2017-02-21T03:24:08.100Z,10
2017-02-21T03:25:08.084Z,10.01
2017-02-21T03:26:08.084Z,9.94
2017-02-21T03:27:08.067Z,9.96
2017-02-21T03:28:07.642Z,9.88
2017-02-21T03:29:08.021Z,9.88
2017-02-21T03:30:08.015Z,9.86
2017-02-21T03:31:07.993Z,9.91
2017-02-21T03:32:07.979Z,9.88
2017-02-21T03:33:07.957Z,9.88
2017-02-21T03:34:07.952Z,9.81
2017-02-21T03:35:07.535Z,9.85
2017-02-21T03:36:07.525Z,9.85
2017-02-21T03:37:07.909Z,9.88
2017-02-21T03:38:07.879Z,9.73
2017-02-21T03:39:07.862Z,9.79
2017-02-21T03:40:07.466Z,9.82
2017-02-21T03:41:07.864Z,9.75
2017-02-21T03:42:07.812Z,9.81
2017-02-21T03:43:07.813Z,9.7
2017-02-21T03:44:07.814Z,9.75
2017-02-21T03:45:07.779Z,9.75
2017-02-21T03:46:07.757Z,9.76
2017-02-21T03:47:07.746Z,9.7
2017-02-21T03:48:07.724Z,9.75
2017-02-21T03:49:07.720Z,9.73
2017-02-21T03:50:07.724Z,9.68
2017-02-21T03:51:07.681Z,9.68
2017-02-21T03:52:07.673Z,9.71
2017-02-21T03:53:07.644Z,9.75
2017-02-21T03:54:07.647Z,9.75
2017-02-21T03:55:07.654Z,9.61
2017-02-21T03:56:07.229Z,9.75
2017-02-21T03:57:07.607Z,9.75
2017-02-21T03:58:07.568Z,9.7
2017-02-21T03:59:07.558Z,9.66
2017-02-21T04:00:07.553Z,9.73
2017-02-21T04:01:07.515Z,9.73
2017-02-21T04:02:07.505Z,9.75
2017-02-21T04:03:07.490Z,9.73
2017-02-21T04:04:07.069Z,9.75
2017-02-21T04:05:07.465Z,9.7
2017-02-21T04:06:07.440Z,9.73
2017-02-21T04:07:07.426Z,9.73
2017-02-21T04:08:07.417Z,9.7
2017-02-21T04:09:07.403Z,9.71
2017-02-21T04:10:07.371Z,9.76
2017-02-21T04:11:07.356Z,9.71
2017-02-21T04:12:07.359Z,9.75
2017-02-21T04:13:07.343Z,9.67
2017-02-21T04:14:07.328Z,9.75
2017-02-21T04:15:07.299Z,9.71
2017-02-21T04:16:07.283Z,9.71
2017-02-21T04:17:06.869Z,9.67
2017-02-21T04:18:07.249Z,9.71
2017-02-21T04:19:07.231Z,9.73
2017-02-21T04:20:07.243Z,9.75
2017-02-21T04:21:07.208Z,9.71
2017-02-21T04:22:07.184Z,9.76
2017-02-21T04:23:07.176Z,9.71
2017-02-21T04:24:07.147Z,9.76
2017-02-21T04:25:07.152Z,9.71
2017-02-21T04:26:07.128Z,9.61
2017-02-21T04:27:07.128Z,9.66
2017-02-21T04:28:06.699Z,9.67
2017-02-21T04:29:07.078Z,9.6
2017-02-21T04:30:07.075Z,9.66
2017-02-21T04:31:07.068Z,9.61
2017-02-21T04:32:06.649Z,9.61
2017-02-21T04:33:07.010Z,9.56
2017-02-21T04:34:07.002Z,9.57
2017-02-21T04:35:07.021Z,9.58
2017-02-21T04:36:06.967Z,9.53
2017-02-21T04:37:07.346Z,9.57
2017-02-21T04:38:06.957Z,9.57
2017-02-21T04:39:06.932Z,9.56
2017-02-21T04:40:06.898Z,9.6
2017-02-21T04:41:06.874Z,9.57
2017-02-21T04:42:06.865Z,9.6
2017-02-21T04:43:06.852Z,9.57
2017-02-21T04:44:06.828Z,9.57
2017-02-21T04:45:06.813Z,9.6
2017-02-21T04:46:06.823Z,9.63
2017-02-21T04:47:06.791Z,9.56
2017-02-21T04:48:06.776Z,9.52
2017-02-21T04:49:06.358Z,9.4
2017-02-21T04:50:06.741Z,9.42
2017-02-21T04:51:06.722Z,9.42
2017-02-21T04:52:06.309Z,9.42
2017-02-21T04:53:06.725Z,9.43
2017-02-21T04:54:06.669Z,9.38
2017-02-21T04:55:06.670Z,9.35
2017-02-21T04:56:06.647Z,9.32
2017-02-21T04:57:06.634Z,9.27
2017-02-21T04:58:06.626Z,9.28
2017-02-21T04:59:06.596Z,9.39
2017-02-21T05:00:06.611Z,9.28
2017-02-21T05:01:06.566Z,9.3
2017-02-21T05:02:06.540Z,9.3
2017-02-21T05:03:06.538Z,9.25
2017-02-21T05:04:06.504Z,9.28
2017-02-21T05:05:06.491Z,9.24
2017-02-21T05:06:06.476Z,9.24
2017-02-21T05:07:06.465Z,9.21
2017-02-21T05:08:06.452Z,9.18
2017-02-21T05:09:06.428Z,9.25
2017-02-21T05:10:06.013Z,9.23
2017-02-21T05:11:06.410Z,9.18
2017-02-21T05:12:05.983Z,9.13
2017-02-21T05:13:06.363Z,9.09
2017-02-21T05:14:06.343Z,9.06
2017-02-21T05:15:06.338Z,9.06
2017-02-21T05:16:06.310Z,9.02
2017-02-21T05:17:06.297Z,9.09
2017-02-21T05:18:06.274Z,8.99
2017-02-21T05:19:06.282Z,9.02
2017-02-21T05:20:06.250Z,8.93
2017-02-21T05:21:06.227Z,8.9
2017-02-21T05:22:06.221Z,8.94
2017-02-21T05:23:06.198Z,8.94
2017-02-21T05:24:06.192Z,8.84
2017-02-21T05:25:06.181Z,8.86
2017-02-21T05:26:06.144Z,8.94
2017-02-21T05:27:06.153Z,8.88
2017-02-21T05:28:06.127Z,8.84
2017-02-21T05:29:06.094Z,8.75
2017-02-21T05:30:06.092Z,8.84
2017-02-21T05:31:06.076Z,8.75
2017-02-21T05:32:05.654Z,8.81
2017-02-21T05:33:06.041Z,8.83
2017-02-21T05:34:06.019Z,8.84
2017-02-21T05:35:05.995Z,8.96
2017-02-21T05:36:05.982Z,8.87
2017-02-21T05:37:05.170Z,8.93
2017-02-21T05:38:05.944Z,8.86
2017-02-21T05:39:05.933Z,8.79
2017-02-21T05:40:05.920Z,8.87
2017-02-21T05:41:05.911Z,8.88
2017-02-21T05:42:05.482Z,8.9
2017-02-21T05:43:05.880Z,8.84
2017-02-21T05:44:05.848Z,8.86
2017-02-21T05:45:05.832Z,8.79
2017-02-21T05:46:05.817Z,8.79
2017-02-21T05:47:05.420Z,8.83
2017-02-21T05:48:05.784Z,8.84
2017-02-21T05:49:05.793Z,8.87
2017-02-21T05:50:05.760Z,8.78
2017-02-21T05:51:05.742Z,8.84
2017-02-21T05:52:05.760Z,8.79
2017-02-21T05:53:05.697Z,8.84
2017-02-21T05:54:05.287Z,8.84
2017-02-21T05:55:05.279Z,8.83
2017-02-21T05:56:05.647Z,8.88
2017-02-21T05:57:05.240Z,8.91
2017-02-21T05:58:05.616Z,8.86
2017-02-21T05:59:05.598Z,8.84
2017-02-21T06:00:05.188Z,8.87
2017-02-21T06:01:05.571Z,8.87
2017-02-21T06:02:05.162Z,8.84
2017-02-21T06:03:04.750Z,8.88
2017-02-21T06:04:05.516Z,8.9
2017-02-21T06:05:05.499Z,8.73
2017-02-21T06:06:05.505Z,8.75
2017-02-21T06:07:05.493Z,8.83
2017-02-21T06:08:05.451Z,8.83
2017-02-21T06:09:05.429Z,8.76
2017-02-21T06:10:05.431Z,8.71
2017-02-21T06:11:05.018Z,8.71
2017-02-21T06:12:05.380Z,8.76
2017-02-21T06:13:05.365Z,8.72
2017-02-21T06:14:05.354Z,8.76
2017-02-21T06:15:04.939Z,8.68
2017-02-21T06:16:05.005Z,8.84
2017-02-21T06:17:05.327Z,8.79
2017-02-21T06:18:05.285Z,8.83
2017-02-21T06:19:05.262Z,8.72
2017-02-21T06:20:05.252Z,8.68
2017-02-21T06:21:05.224Z,8.73
2017-02-21T06:22:04.825Z,8.72
2017-02-21T06:23:05.195Z,8.72
2017-02-21T06:24:05.177Z,8.69
2017-02-21T06:25:04.772Z,8.71
2017-02-21T06:26:05.152Z,8.75
2017-02-21T06:27:05.129Z,8.72
2017-02-21T06:28:05.114Z,8.79
2017-02-21T06:29:05.090Z,8.72
2017-02-21T06:30:05.092Z,8.81
2017-02-21T06:31:05.079Z,8.73
2017-02-21T06:32:05.051Z,8.73
2017-02-21T06:33:05.043Z,8.79
2017-02-21T06:34:05.012Z,8.73
2017-02-21T06:35:05.008Z,8.71
2017-02-21T06:36:04.978Z,8.73
2017-02-21T06:37:04.979Z,8.75
2017-02-21T06:38:04.937Z,8.78
2017-02-21T06:39:04.933Z,8.73
2017-02-21T06:40:04.918Z,8.69
2017-02-21T06:41:04.907Z,8.76
2017-02-21T06:42:04.877Z,8.76
2017-02-21T06:43:04.860Z,8.94
2017-02-21T06:44:04.841Z,8.84
2017-02-21T06:45:04.819Z,8.88
2017-02-21T06:46:04.437Z,8.79
2017-02-21T06:47:04.798Z,8.81
2017-02-21T06:48:04.787Z,8.83
2017-02-21T06:49:04.755Z,8.83
2017-02-21T06:50:04.739Z,8.88
2017-02-21T06:51:04.722Z,8.9
2017-02-21T06:52:04.703Z,8.86
2017-02-21T06:53:04.688Z,8.93
2017-02-21T06:54:04.306Z,8.97
2017-02-21T06:55:04.267Z,8.91
2017-02-21T06:56:04.244Z,8.93
2017-02-21T06:57:04.235Z,8.96
2017-02-21T06:58:04.218Z,8.94
2017-02-21T06:59:04.198Z,8.99
2017-02-21T07:00:04.188Z,8.93
2017-02-21T07:01:04.578Z,8.93
2017-02-21T07:02:04.550Z,8.9
2017-02-21T07:03:04.573Z,8.86
2017-02-21T07:04:04.519Z,8.91
2017-02-21T07:05:04.489Z,8.86
2017-02-21T07:06:04.483Z,8.87
2017-02-21T07:07:04.502Z,8.81
2017-02-21T07:08:04.049Z,8.78
2017-02-21T07:09:04.038Z,8.86
2017-02-21T07:10:04.420Z,8.79
2017-02-21T07:11:04.408Z,8.91
2017-02-21T07:12:04.375Z,8.84
2017-02-21T07:13:04.356Z,8.9
2017-02-21T07:14:04.335Z,8.84
2017-02-21T07:15:04.316Z,8.86
2017-02-21T07:16:04.301Z,8.83
2017-02-21T07:17:04.294Z,8.9
2017-02-21T07:18:04.281Z,8.87
2017-02-21T07:19:04.268Z,8.83
2017-02-21T07:20:04.233Z,8.83
2017-02-21T07:21:04.220Z,8.81
2017-02-21T07:22:04.196Z,8.81
2017-02-21T07:23:03.803Z,8.86
2017-02-21T07:24:04.169Z,8.86
2017-02-21T07:25:04.177Z,8.88
2017-02-21T07:26:03.736Z,8.93
2017-02-21T07:27:04.122Z,8.94
2017-02-21T07:28:04.097Z,8.91
2017-02-21T07:29:04.087Z,8.93
2017-02-21T07:30:04.074Z,8.91
2017-02-21T07:31:04.059Z,8.91
2017-02-21T07:32:04.035Z,8.93
2017-02-21T07:33:04.036Z,8.93
2017-02-21T07:34:04.000Z,8.93
2017-02-21T07:35:03.992Z,8.93
2017-02-21T07:36:03.967Z,8.96
2017-02-21T07:37:03.574Z,8.93
2017-02-21T07:38:03.948Z,8.9
2017-02-21T07:39:03.524Z,8.94
2017-02-21T07:40:03.940Z,8.96
2017-02-21T07:41:03.911Z,8.93
2017-02-21T07:42:03.870Z,8.91
2017-02-21T07:43:03.864Z,8.94
2017-02-21T07:44:03.872Z,9.04
2017-02-21T07:45:03.843Z,8.99
2017-02-21T07:46:03.811Z,9.09
2017-02-21T07:47:03.791Z,9.04
2017-02-21T07:48:03.782Z,9.02
2017-02-21T07:49:03.770Z,9.02
2017-02-21T07:50:03.749Z,9.15
2017-02-21T07:51:03.738Z,9.13
2017-02-21T07:52:03.718Z,9.12
2017-02-21T07:53:03.699Z,9.13
2017-02-21T07:54:03.691Z,9.1
2017-02-21T07:55:03.669Z,9.15
2017-02-21T07:56:03.651Z,9.23
2017-02-21T07:57:03.230Z,9.2
2017-02-21T07:58:03.623Z,9.27
2017-02-21T07:59:03.600Z,9.2
2017-02-21T08:00:03.602Z,9.25
2017-02-21T08:01:03.572Z,9.25
2017-02-21T08:02:03.146Z,9.3
2017-02-21T08:03:03.132Z,9.3
2017-02-21T08:04:03.512Z,9.31
2017-02-21T08:05:03.512Z,9.28
2017-02-21T08:06:03.501Z,9.31
2017-02-21T08:07:03.069Z,9.43
2017-02-21T08:08:03.451Z,9.4
2017-02-21T08:09:03.435Z,9.45
2017-02-21T08:10:03.430Z,9.45
2017-02-21T08:11:03.406Z,9.5
2017-02-21T08:12:03.385Z,9.53
2017-02-21T08:13:03.376Z,9.6
2017-02-21T08:14:02.956Z,9.53
2017-02-21T08:15:03.352Z,9.6
2017-02-21T08:16:03.327Z,9.57
2017-02-21T08:17:03.319Z,9.58
2017-02-21T08:18:02.929Z,9.66
2017-02-21T08:19:03.275Z,9.58
2017-02-21T08:20:03.267Z,9.58
2017-02-21T08:21:02.848Z,9.61
2017-02-21T08:22:03.245Z,9.67
2017-02-21T08:23:03.220Z,9.67
2017-02-21T08:24:03.211Z,9.58
2017-02-21T08:25:03.189Z,9.66
2017-02-21T08:26:03.181Z,9.66
2017-02-21T08:27:02.757Z,9.71
2017-02-21T08:28:03.141Z,9.68
2017-02-21T08:29:03.123Z,9.71
2017-02-21T08:30:03.116Z,9.73
2017-02-21T08:31:03.108Z,9.71
2017-02-21T08:32:03.086Z,9.81
2017-02-21T08:33:03.067Z,9.82
2017-02-21T08:34:03.053Z,9.81
2017-02-21T08:35:03.030Z,9.82
2017-02-21T08:36:03.012Z,9.79
2017-02-21T08:37:03.017Z,9.78
2017-02-21T08:38:03.192Z,9.79
2017-02-21T08:39:02.588Z,9.79
2017-02-21T08:40:02.955Z,9.82
2017-02-21T08:41:02.947Z,9.81
2017-02-21T08:42:02.930Z,9.83
2017-02-21T08:43:02.908Z,9.96
2017-02-21T08:44:02.506Z,9.99
2017-02-21T08:45:02.886Z,10
2017-02-21T08:46:02.462Z,10.39
2017-02-21T08:47:02.855Z,10.7
2017-02-21T08:48:02.832Z,10.8
2017-02-21T08:49:02.832Z,10.91
2017-02-21T08:50:02.802Z,10.76
2017-02-21T08:51:02.780Z,10.83
2017-02-21T08:52:02.772Z,10.98
2017-02-21T08:53:02.356Z,11.25
2017-02-21T08:54:02.358Z,11.31
2017-02-21T08:55:02.329Z,11.57
2017-02-21T08:56:02.733Z,11.83
2017-02-21T08:57:02.298Z,12.11
2017-02-21T08:58:02.292Z,12.31
2017-02-21T08:59:02.275Z,12.52
2017-02-21T09:00:02.659Z,12.79
2017-02-21T09:01:02.253Z,13.09
2017-02-21T09:02:02.235Z,13.02
2017-02-21T09:03:02.232Z,12.88
2017-02-21T09:04:02.613Z,13.18
2017-02-21T09:05:02.596Z,13.46
2017-02-21T09:06:02.613Z,13.63
2017-02-21T09:07:02.580Z,13.83
2017-02-21T09:08:02.588Z,13.3
2017-02-21T09:09:02.570Z,12.99
2017-02-21T09:10:02.532Z,12.49
2017-02-21T09:11:02.528Z,12.12
2017-02-21T09:12:02.509Z,12.06
2017-02-21T09:13:02.512Z,11.94
2017-02-21T09:14:02.483Z,11.96
2017-02-21T09:15:02.473Z,11.78
2017-02-21T09:16:02.465Z,11.71
2017-02-21T09:17:02.059Z,11.68
2017-02-21T09:18:02.445Z,11.44
2017-02-21T09:19:02.420Z,11.38
2017-02-21T09:20:02.410Z,11.31
2017-02-21T09:21:02.449Z,11.59
2017-02-21T09:22:02.394Z,11.5
2017-02-21T09:23:02.369Z,11.39
2017-02-21T09:24:02.364Z,11.31
2017-02-21T09:25:02.369Z,11.2
2017-02-21T09:26:01.941Z,11.24
2017-02-21T09:27:02.328Z,11.16
2017-02-21T09:28:02.325Z,11.1
2017-02-21T09:29:02.334Z,11.16
2017-02-21T09:30:02.299Z,11.1
2017-02-21T09:31:02.277Z,11.01
2017-02-21T09:32:02.261Z,10.99
2017-02-21T09:33:02.246Z,10.99
2017-02-21T09:34:02.258Z,11.02
2017-02-21T09:35:02.221Z,10.99
2017-02-21T09:36:02.210Z,10.95
2017-02-21T09:37:01.798Z,10.94
2017-02-21T09:38:02.177Z,10.86
2017-02-21T09:39:02.177Z,10.84
2017-02-21T09:40:02.188Z,10.98
2017-02-21T09:41:02.153Z,10.96
2017-02-21T09:42:02.142Z,10.92
2017-02-21T09:43:01.719Z,10.95
2017-02-21T09:44:02.105Z,10.89
2017-02-21T09:45:02.105Z,10.99
2017-02-21T09:46:02.101Z,10.94
2017-02-21T09:47:02.065Z,10.96
2017-02-21T09:48:02.081Z,11.07
2017-02-21T09:49:02.057Z,11.13
2017-02-21T09:50:02.043Z,11.1
2017-02-21T09:51:02.019Z,11.11
2017-02-21T09:52:02.003Z,11.11
2017-02-21T09:53:02.019Z,11.07
2017-02-21T09:54:01.973Z,11.06
2017-02-21T09:55:01.961Z,11.11
2017-02-21T09:56:01.955Z,11.01
2017-02-21T09:57:01.952Z,11.06
2017-02-21T09:58:01.943Z,10.94
2017-02-21T09:59:01.923Z,10.86
2017-02-21T10:00:01.901Z,10.81
2017-02-21T10:01:01.879Z,10.84
2017-02-21T10:02:01.881Z,10.8
2017-02-21T10:03:01.858Z,10.8
2017-02-21T10:04:01.851Z,10.77
2017-02-21T10:05:01.828Z,10.83
2017-02-21T10:06:01.413Z,10.84
2017-02-21T10:07:01.455Z,10.8
2017-02-21T10:08:01.389Z,10.66
2017-02-21T10:09:01.787Z,10.6
2017-02-21T10:10:01.769Z,10.66
2017-02-21T10:11:01.739Z,10.62
2017-02-21T10:12:01.738Z,10.66
2017-02-21T10:13:01.721Z,10.66
2017-02-21T10:14:01.708Z,10.77
2017-02-21T10:15:01.693Z,10.7
2017-02-21T10:16:01.676Z,10.73
2017-02-21T10:17:01.684Z,10.59
2017-02-21T10:18:01.658Z,10.62
2017-02-21T10:19:01.641Z,10.63
2017-02-21T10:20:01.231Z,10.55
2017-02-21T10:21:01.612Z,10.65
2017-02-21T10:22:01.594Z,10.7
2017-02-21T10:23:01.579Z,10.73
2017-02-21T10:24:01.562Z,10.68
2017-02-21T10:25:01.553Z,10.68
2017-02-21T10:26:01.545Z,10.73
2017-02-21T10:27:01.519Z,10.74
2017-02-21T10:28:01.136Z,10.81
2017-02-21T10:29:01.119Z,10.8
2017-02-21T10:30:01.521Z,10.78
2017-02-21T10:31:01.462Z,10.84
2017-02-21T10:32:01.456Z,10.99
2017-02-21T10:33:01.444Z,11.01
2017-02-21T10:34:01.423Z,10.98
2017-02-21T10:35:01.429Z,10.89
2017-02-21T10:36:01.397Z,10.86
2017-02-21T10:37:01.415Z,10.77
2017-02-21T10:38:01.579Z,10.84
2017-02-21T10:39:01.354Z,10.78
2017-02-21T10:40:00.955Z,10.78
2017-02-21T10:41:01.337Z,10.86
2017-02-21T10:42:01.324Z,10.83
2017-02-21T10:43:01.301Z,10.76
2017-02-21T10:44:00.890Z,10.7
2017-02-21T10:45:01.276Z,10.76
2017-02-21T10:46:01.259Z,10.6
2017-02-21T10:47:01.243Z,10.6
2017-02-21T10:48:01.248Z,10.71
2017-02-21T10:49:01.210Z,10.74
2017-02-21T10:50:00.799Z,10.62
2017-02-21T10:51:00.796Z,10.63
2017-02-21T10:52:01.171Z,10.59
2017-02-21T10:53:01.167Z,10.66
2017-02-21T10:54:00.740Z,10.59
2017-02-21T10:55:01.141Z,10.6
2017-02-21T10:56:01.116Z,10.55
2017-02-21T10:57:01.115Z,10.51
2017-02-21T10:58:00.305Z,10.56
2017-02-21T10:59:00.683Z,10.55
2017-02-21T11:00:00.657Z,10.53
2017-02-21T11:01:00.647Z,10.52
2017-02-21T11:02:01.037Z,10.53
2017-02-21T11:03:01.024Z,10.46
2017-02-21T11:04:01.007Z,10.43
2017-02-21T11:05:00.987Z,10.4
2017-02-21T11:06:00.970Z,10.4
2017-02-21T11:07:00.961Z,10.33
2017-02-21T11:08:00.970Z,10.26
2017-02-21T11:09:00.530Z,10.33
2017-02-21T11:10:00.913Z,10.21
2017-02-21T11:11:00.927Z,10.3
2017-02-21T11:12:00.886Z,10.3
2017-02-21T11:13:00.870Z,10.37
2017-02-21T11:14:00.851Z,10.3
2017-02-21T11:15:00.840Z,10.3
2017-02-21T11:16:00.823Z,10.32
2017-02-21T11:17:00.421Z,10.37
2017-02-21T11:18:00.790Z,10.37
2017-02-21T11:19:00.788Z,10.53
2017-02-21T11:20:00.783Z,10.56
2017-02-21T11:21:00.753Z,10.73
2017-02-21T11:22:00.735Z,10.78
2017-02-21T11:23:00.353Z,10.78
2017-02-21T11:24:00.718Z,10.78
2017-02-21T11:25:00.693Z,10.78
2017-02-21T11:26:00.688Z,10.83
2017-02-21T11:27:00.263Z,10.84
2017-02-21T11:28:00.645Z,10.95
2017-02-21T11:29:00.638Z,10.98
2017-02-21T11:30:00.619Z,10.96
2017-02-21T11:31:00.605Z,10.94
2017-02-21T11:32:00.591Z,11.03
2017-02-21T11:33:00.625Z,11.17
2017-02-21T11:34:00.572Z,11.49
2017-02-21T11:35:00.550Z,12.02
2017-02-21T11:36:00.165Z,12.15
2017-02-21T11:37:00.143Z,12.2
2017-02-21T11:38:00.518Z,12.24
2017-02-21T11:39:00.102Z,12.23
2017-02-21T11:40:00.484Z,12.26
2017-02-21T11:41:00.099Z,12.39
2017-02-21T11:42:00.478Z,12.79
2017-02-21T11:42:59.670Z,12.97
2017-02-21T11:44:00.455Z,13.41
2017-02-21T11:45:00.451Z,13.81
2017-02-21T11:46:00.433Z,13.87
2017-02-21T11:47:00.407Z,13.73
2017-02-21T11:48:00.401Z,13.7
2017-02-21T11:49:00.392Z,13.65
2017-02-21T11:50:00.377Z,13.51
2017-02-21T11:50:59.967Z,13.87
2017-02-21T11:52:00.353Z,13.88
2017-02-21T11:53:00.349Z,13.83
2017-02-21T11:53:59.946Z,13.67
2017-02-21T11:55:00.332Z,13.77
2017-02-21T11:56:00.326Z,13.92
2017-02-21T11:56:59.913Z,13.91
2017-02-21T11:58:00.303Z,14.07
2017-02-21T11:59:00.289Z,13.95
2017-02-21T12:00:00.288Z,13.81
2017-02-21T12:01:00.283Z,13.87
2017-02-21T12:02:00.272Z,14.01
2017-02-21T12:03:00.272Z,14.01
2017-02-21T12:04:00.256Z,14.29
2017-02-21T12:04:59.861Z,14.38
2017-02-21T12:05:59.839Z,14.46
2017-02-21T12:07:00.240Z,14.38
2017-02-21T12:07:59.827Z,14.54
2017-02-21T12:08:59.828Z,14.74
2017-02-21T12:09:59.812Z,14.54
2017-02-21T12:10:59.801Z,14.65
2017-02-21T12:12:00.195Z,14.78
2017-02-21T12:12:59.797Z,14.5
2017-02-21T12:13:59.799Z,14.47
2017-02-21T12:15:00.183Z,14.17
2017-02-21T12:15:59.788Z,14.2
2017-02-21T12:17:00.164Z,14.04
2017-02-21T12:17:59.790Z,14.38
2017-02-21T12:19:00.154Z,14.46
2017-02-21T12:20:00.145Z,14.5
2017-02-21T12:21:00.142Z,14.44
2017-02-21T12:22:00.136Z,14.27
2017-02-21T12:23:00.127Z,14.07
2017-02-21T12:24:00.131Z,14.19
2017-02-21T12:24:59.726Z,14.47
2017-02-21T12:25:59.742Z,14.49
2017-02-21T12:27:00.104Z,14.74
2017-02-21T12:28:00.100Z,14.72
2017-02-21T12:29:00.091Z,14.65
2017-02-21T12:30:00.094Z,14.44
2017-02-21T12:31:00.079Z,14.01
2017-02-21T12:31:59.679Z,13.79
2017-02-21T12:33:00.076Z,13.73
2017-02-21T12:34:00.078Z,13.61
2017-02-21T12:35:00.077Z,13.83
2017-02-21T12:36:00.073Z,14.25
2017-02-21T12:37:00.049Z,14.65
2017-02-21T12:38:00.248Z,15.06
2017-02-21T12:38:59.636Z,15.51
2017-02-21T12:40:00.031Z,15.66
2017-02-21T12:41:00.022Z,15.54
2017-02-21T12:42:00.036Z,15.72
2017-02-21T12:42:59.616Z,15.7
2017-02-21T12:43:59.614Z,15.43
2017-02-21T12:44:59.607Z,15.43
2017-02-21T12:46:00.010Z,15.75
2017-02-21T12:46:59.985Z,16.06
2017-02-21T12:47:59.981Z,16.26
2017-02-21T12:48:59.596Z,16.48
2017-02-21T12:49:59.585Z,16.53
2017-02-21T12:50:59.568Z,16.4
2017-02-21T12:51:59.569Z,16.15
2017-02-21T12:52:59.575Z,15.93
2017-02-21T12:53:59.965Z,15.59
2017-02-21T12:54:59.958Z,15.48
2017-02-21T12:55:59.557Z,15.21
2017-02-21T12:56:59.945Z,15.02
2017-02-21T12:57:59.555Z,14.71
2017-02-21T12:58:59.947Z,14.46
2017-02-21T12:59:59.552Z,14.1
2017-02-21T13:00:59.527Z,13.81
2017-02-21T13:01:59.919Z,13.69
2017-02-21T13:02:59.511Z,13.49
2017-02-21T13:03:59.518Z,13.12
2017-02-21T13:04:59.502Z,12.99
2017-02-21T13:05:59.500Z,12.87